Proctor, Texas
Current Conditions -  °F | °C
As of 11:15 AM on Sunday 23 Nov 2014 (Local Time) from KMKN Reporting Station
Clear Clear  
Wind Chill: 65°   Ceiling: Unl
Heat Index: 65°   Visibility: 10mi
Dew Point: 45°   Wind: 14mph
Humidity: 48%   Direction: 260°W
Pressure: 29.56"   Gusts: 23mph
Location:  31.99°N, 98.43°W
Report Text: KMKN 231715Z AUTO 26012G20KT 10SM CLR 19/07 A2956 RMK AO2 T01850072
Loading
Personal Weather Stations






























Interactive Weather Map New forecast layout! Learn more

10-Day Weather Forecast

Advertisements
Track Severe Weather on mobile